Ever Ulysses — 9V7962 — position and weather

sailwx.info

Track history (hours):
 
Tides and Currents Weather Stations Pressure Air Temp Water Temp Dewpoint Dewpoint Depression Visibility Wind Speed Wind Dir Waves Ship Positions

Ever Ulysses

Last reported at 2016-Aug-21 06:09 UTC. Time now 2016-Aug-28 22:25 UTC.
Position N 39°12' W 129°29'.

Length 285 m; draft 10.7 m.

Type: Ship (hazmat cat D). MMSI: 564442000.

Date/timePositionNaut miles runAvg speedWind from/ knotsBaromVisibWave heightAir tempDewpointWater temp
2016-Aug-21 06:09N 39°12' W 129°29'916.0
2016-Aug-21 05:33N 39°07' W 129°19'1615.8
2016-Aug-21 04:33N 38°58' W 129°02'1615.8
2016-Aug-21 03:33N 38°50' W 128°45'1715.7
2016-Aug-21 02:29N 38°40' W 128°27'1415.4
2016-Aug-21 01:34N 38°32' W 128°12'1313.3
2016-Aug-21 00:33N 38°24' W 127°58'1312.6
2016-Aug-20 23:33N 38°23' W 127°42'1313.3
2016-Aug-20 22:33N 38°22' W 127°25'1513.1
2016-Aug-20 21:23N 38°21' W 127°06'1112.9
2016-Aug-20 20:33N 38°20' W 126°52'1313.3
2016-Aug-20 19:33N 38°20' W 126°35'1413.2
2016-Aug-20 18:30N 38°19' W 126°18'1213.0
2016-Aug-20 17:33N 38°18' W 126°02'1312.9
2016-Aug-20 16:33N 38°17' W 125°45'1313.1
2016-Aug-20 15:33N 38°16' W 125°29'1312.8
2016-Aug-20 14:33N 38°15' W 125°13'1313.0
2016-Aug-20 13:33N 38°14' W 124°56'1313.0
2016-Aug-20 12:33N 38°14' W 124°40'1313.2
2016-Aug-20 11:33N 38°13' W 124°23'1313.3
2016-Aug-20 10:33N 38°12' W 124°06'1312.9
2016-Aug-20 09:33N 38°11' W 123°50'1313.0
2016-Aug-20 08:34N 38°10' W 123°33'1211.6
2016-Aug-20 07:34N 38°08' W 123°19'9 9.4
2016-Aug-20 06:33N 38°01' W 123°10'9 8.9
2016-Aug-20 05:33N 37°56' W 123°01'9 9.1
2016-Aug-20 04:34N 37°51' W 122°51'9 9.1
2016-Aug-20 03:34N 37°46' W 122°42'1110.7
2016-Aug-20 02:33N 37°49' W 122°29'7 6.4
2016-Aug-20 01:31N 37°48' W 122°20'0 0.0
2016-Aug-20 00:31N 37°48' W 122°20'0 0.0
2016-Aug-19 23:31N 37°48' W 122°20'0 0.0
2016-Aug-19 22:31N 37°48' W 122°20'0 0.0
2016-Aug-19 21:31N 37°48' W 122°20'0 0.0
2016-Aug-19 20:31N 37°48' W 122°20'0 0.0
2016-Aug-19 19:33N 37°48' W 122°20'0 0.0
2016-Aug-19 18:33N 37°48' W 122°20'0 0.0
2016-Aug-19 17:33N 37°48' W 122°20'0 0.0
2016-Aug-19 16:33N 37°48' W 122°20'0 0.0
2016-Aug-19 15:33N 37°48' W 122°20'0 0.0
2016-Aug-19 14:33N 37°48' W 122°20'0 0.0
2016-Aug-19 13:33N 37°48' W 122°20'0 0.0
2016-Aug-19 12:33N 37°48' W 122°20'0 0.0
2016-Aug-19 11:33N 37°48' W 122°20'0 0.0
2016-Aug-19 10:33N 37°48' W 122°20'0 0.0
2016-Aug-19 09:33N 37°48' W 122°20'0 0.0
2016-Aug-19 08:33N 37°48' W 122°20'1 0.7
2016-Aug-19 07:33N 37°49' W 122°20'9 9.3
2016-Aug-19 06:33N 37°48' W 122°31'9 8.9
2016-Aug-19 05:33N 37°42' W 122°40'7 6.7
2016-Aug-19 04:33N 37°35' W 122°40'9 9.0
2016-Aug-19 03:33N 37°26' W 122°39'9 9.0
2016-Aug-19 02:33N 37°17' W 122°39'1211.6
2016-Aug-19 01:33N 37°06' W 122°36'1313.1
2016-Aug-19 00:33N 36°54' W 122°30'2 2.3
2016-Aug-18 23:33N 36°52' W 122°29'1 0.9
2016-Aug-18 22:33N 36°52' W 122°30'1 0.9
2016-Aug-18 21:33N 36°51' W 122°31'1 1.0
2016-Aug-18 20:33N 36°51' W 122°32'1 0.9
2016-Aug-18 19:33N 36°51' W 122°33'1 0.8
2016-Aug-18 18:33N 36°50' W 122°34'1 0.9
2016-Aug-18 17:33N 36°50' W 122°35'1 0.9
2016-Aug-18 16:33N 36°50' W 122°36'1 0.7
2016-Aug-18 15:33N 36°50' W 122°37'1 0.7
2016-Aug-18 14:33N 36°50' W 122°38'1 0.9
2016-Aug-18 13:32N 36°50' W 122°39'1 0.9
2016-Aug-18 12:33N 36°51' W 122°40'1 1.0
2016-Aug-18 11:33N 36°51' W 122°41'1 1.1
2016-Aug-18 10:29N 36°51' W 122°42'1 1.1
2016-Aug-18 09:33N 36°52' W 122°43'1 1.1
2016-Aug-18 08:33N 36°52' W 122°45'1 1.1
2016-Aug-18 07:34N 36°53' W 122°46'1 1.1
2016-Aug-18 06:33N 36°53' W 122°47'1 1.1
2016-Aug-18 05:33N 36°53' W 122°49'1 1.1
2016-Aug-18 04:33N 36°54' W 122°50'1 1.3
2016-Aug-18 03:33N 36°55' W 122°51'8 7.9
2016-Aug-18 02:33N 36°55' W 122°41'1110.7
2016-Aug-18 01:33N 36°49' W 122°31'1313.0
2016-Aug-18 00:33N 36°37' W 122°24'1313.0
2016-Aug-17 23:33N 36°25' W 122°17'1313.0
2016-Aug-17 22:33N 36°14' W 122°10'1312.8
2016-Aug-17 21:33N 36°03' W 122°02'1312.8
2016-Aug-17 20:33N 35°52' W 121°54'1313.0
2016-Aug-17 19:33N 35°41' W 121°45'1313.0
2016-Aug-17 18:33N 35°29' W 121°37'1313.2
2016-Aug-17 17:33N 35°18' W 121°29'1313.2
2016-Aug-17 16:33N 35°07' W 121°20'1313.3
2016-Aug-17 15:33N 34°55' W 121°12'1313.0
2016-Aug-17 14:33N 34°44' W 121°04'2512.6
2016-Aug-17 12:33N 34°25' W 120°45'1312.6
2016-Aug-17 11:33N 34°21' W 120°30'1313.5
2016-Aug-17 10:34N 34°18' W 120°14'1413.7
2016-Aug-17 09:34N 34°14' W 119°58'1212.4
2016-Aug-17 08:33N 34°11' W 119°44'1312.6
2016-Aug-17 07:33N 34°07' W 119°29'1312.9
2016-Aug-17 06:34N 34°04' W 119°14'1312.9
2016-Aug-17 05:34N 33°58' W 119°00'1111.1
2016-Aug-17 04:34N 33°52' W 118°49'1110.7
2016-Aug-17 03:33N 33°46' W 118°38'1110.7
2016-Aug-17 02:33N 33°41' W 118°27'10 9.6
2016-Aug-17 01:33N 33°40' W 118°15'4 3.6
2016-Aug-17 00:31N 33°44' W 118°15'0 0.0
2016-Aug-16 23:31N 33°44' W 118°15'0 0.0
2016-Aug-16 22:31N 33°44' W 118°15'0 0.0
2016-Aug-16 21:31N 33°44' W 118°15'0 0.0
2016-Aug-16 20:33N 33°44' W 118°15'0 0.0
2016-Aug-16 19:33N 33°44' W 118°15'0 0.0
2016-Aug-16 18:33N 33°44' W 118°15'0 0.0
2016-Aug-16 17:30N 33°44' W 118°15'0 0.0
2016-Aug-16 16:33N 33°44' W 118°15'0 0.0
2016-Aug-16 15:33N 33°44' W 118°15'0 0.0
2016-Aug-16 14:33N 33°44' W 118°15'0 0.0
2016-Aug-16 13:33N 33°44' W 118°15'0 0.0
2016-Aug-16 12:33N 33°44' W 118°15'0 0.0
2016-Aug-16 11:33N 33°44' W 118°15'0 0.0
2016-Aug-16 10:33N 33°44' W 118°15'0 0.0
2016-Aug-16 09:33N 33°44' W 118°15'0 0.0
2016-Aug-16 08:33N 33°44' W 118°15'0 0.0
2016-Aug-16 07:33N 33°44' W 118°15'0 0.0
2016-Aug-16 04:33N 33°44' W 118°15'0 0.0
2016-Aug-16 03:33N 33°44' W 118°15'0 0.0
2016-Aug-16 02:33N 33°44' W 118°15'0 0.0
2016-Aug-16 01:33N 33°44' W 118°15'0 0.0
2016-Aug-16 00:33N 33°44' W 118°15'0 0.0
2016-Aug-15 23:33N 33°44' W 118°15'0 0.0
2016-Aug-15 22:33N 33°44' W 118°15'0 0.0
2016-Aug-15 21:33N 33°44' W 118°15'0 0.0
2016-Aug-15 20:30N 33°44' W 118°15'0 0.0
2016-Aug-15 19:33N 33°44' W 118°15'0 0.0
2016-Aug-15 18:33N 33°44' W 118°15'0 0.0
2016-Aug-15 17:33N 33°44' W 118°15'0 0.0
2016-Aug-15 16:33N 33°44' W 118°15'0 0.0
2016-Aug-15 15:30N 33°44' W 118°15'0 0.0
2016-Aug-15 14:33N 33°44' W 118°15'0 0.0
2016-Aug-15 13:33N 33°44' W 118°15'0 0.0
2016-Aug-15 12:33N 33°44' W 118°15'0 0.0
2016-Aug-15 11:33N 33°44' W 118°15'0 0.0
2016-Aug-15 10:30N 33°44' W 118°15'0 0.0
2016-Aug-15 09:33N 33°44' W 118°15'0 0.0
2016-Aug-15 08:33N 33°44' W 118°15'0 0.0
2016-Aug-15 07:33N 33°44' W 118°15'0 0.0
2016-Aug-15 06:33N 33°44' W 118°15'0 0.0
2016-Aug-15 04:33N 33°44' W 118°15'0 0.0
2016-Aug-15 03:33N 33°44' W 118°15'0 0.0
2016-Aug-15 02:33N 33°44' W 118°15'0 0.0
2016-Aug-15 01:33N 33°44' W 118°15'0 0.0
2016-Aug-15 00:33N 33°44' W 118°15'0 0.0
2016-Aug-14 23:33N 33°44' W 118°15'0 0.1
2016-Aug-14 22:33N 33°44' W 118°16'6 5.8
2016-Aug-14 21:33N 33°38' W 118°16'8 8.4
2016-Aug-14 20:33N 33°36' W 118°26'9 9.1
2016-Aug-14 19:33N 33°36' W 118°37'1010.2
2016-Aug-14 18:33N 33°37' W 118°49'1111.2
2016-Aug-14 17:33N 33°38' W 119°02'1010.3
2016-Aug-14 16:33N 33°38' W 119°15'1312.9
2016-Aug-14 15:33N 33°38' W 119°30'1313.1
2016-Aug-14 14:33N 33°38' W 119°46'1313.2
2016-Aug-14 13:33N 33°38' W 120°02'1313.2
2016-Aug-14 12:33N 33°38' W 120°18'1313.3
2016-Aug-14 11:33N 33°38' W 120°34'1413.6
2016-Aug-14 10:33N 33°38' W 120°50'1413.9
2016-Aug-14 09:33N 33°38' W 121°07'1413.9
2016-Aug-14 08:33N 33°38' W 121°23'1413.7
2016-Aug-14 07:33N 33°38' W 121°40'1313.5
2016-Aug-14 06:33N 33°38' W 121°56'2713.3
2016-Aug-14 04:33N 33°39' W 122°28'1414.0
2016-Aug-14 03:33N 33°39' W 122°45'1414.1
2016-Aug-14 02:33N 33°39' W 123°02'1413.9
2016-Aug-14 01:33N 33°39' W 123°18'1413.9
2016-Aug-14 00:34N 33°39' W 123°35'1313.4
2016-Aug-13 23:33N 33°39' W 123°51'1313.0
2016-Aug-13 22:33N 33°39' W 124°07'1413.1
2016-Aug-13 21:28N 33°39' W 124°24'1415.5
2016-Aug-13 20:33N 33°44' W 124°40'1817.2
2016-Aug-13 19:31N 33°53' W 124°58'1717.2
2016-Aug-13 18:32N 34°02' W 125°15'9017.8
2016-Aug-13 13:30N 34°48' W 126°49'3618.5
2016-Aug-13 11:33N 35°07' W 127°26'1818.5
2016-Aug-13 10:33N 35°17' W 127°46'1918.4
2016-Aug-13 09:33N 35°26' W 128°05'1818.3
2016-Aug-13 08:33N 35°35' W 128°25'1918.3
2016-Aug-13 07:31N 35°44' W 128°45'2118.1
2016-Aug-13 06:20N 35°55' W 129°07'  
Track history (hours):
 
Tides and Currents Weather Stations Pressure Air Temp Water Temp Dewpoint Dewpoint Depression Visibility Wind Speed Wind Dir Waves Ship Positions

Ever Ulysses

Last reported at 2016-Aug-21 06:09 UTC. Time now 2016-Aug-28 22:25 UTC.
Position N 39°12' W 129°29'.

Length 285 m; draft 10.7 m.

Type: Ship (hazmat cat D). MMSI: 564442000.

Date/timePositionNaut miles runAvg speedWind from/ knotsBaromVisibWave heightAir tempDewpointWater temp
2016-Aug-21 06:09N 39°12' W 129°29'916.0
2016-Aug-21 05:33N 39°07' W 129°19'1615.8
2016-Aug-21 04:33N 38°58' W 129°02'1615.8
2016-Aug-21 03:33N 38°50' W 128°45'1715.7
2016-Aug-21 02:29N 38°40' W 128°27'1415.4
2016-Aug-21 01:34N 38°32' W 128°12'1313.3
2016-Aug-21 00:33N 38°24' W 127°58'1312.6
2016-Aug-20 23:33N 38°23' W 127°42'1313.3
2016-Aug-20 22:33N 38°22' W 127°25'1513.1
2016-Aug-20 21:23N 38°21' W 127°06'1112.9
2016-Aug-20 20:33N 38°20' W 126°52'1313.3
2016-Aug-20 19:33N 38°20' W 126°35'1413.2
2016-Aug-20 18:30N 38°19' W 126°18'1213.0
2016-Aug-20 17:33N 38°18' W 126°02'1312.9
2016-Aug-20 16:33N 38°17' W 125°45'1313.1
2016-Aug-20 15:33N 38°16' W 125°29'1312.8
2016-Aug-20 14:33N 38°15' W 125°13'1313.0
2016-Aug-20 13:33N 38°14' W 124°56'1313.0
2016-Aug-20 12:33N 38°14' W 124°40'1313.2
2016-Aug-20 11:33N 38°13' W 124°23'1313.3
2016-Aug-20 10:33N 38°12' W 124°06'1312.9
2016-Aug-20 09:33N 38°11' W 123°50'1313.0
2016-Aug-20 08:34N 38°10' W 123°33'1211.6
2016-Aug-20 07:34N 38°08' W 123°19'9 9.4
2016-Aug-20 06:33N 38°01' W 123°10'9 8.9
2016-Aug-20 05:33N 37°56' W 123°01'9 9.1
2016-Aug-20 04:34N 37°51' W 122°51'9 9.1
2016-Aug-20 03:34N 37°46' W 122°42'1110.7
2016-Aug-20 02:33N 37°49' W 122°29'7 6.4
2016-Aug-20 01:31N 37°48' W 122°20'0 0.0
2016-Aug-20 00:31N 37°48' W 122°20'0 0.0
2016-Aug-19 23:31N 37°48' W 122°20'0 0.0
2016-Aug-19 22:31N 37°48' W 122°20'0 0.0
2016-Aug-19 21:31N 37°48' W 122°20'0 0.0
2016-Aug-19 20:31N 37°48' W 122°20'0 0.0
2016-Aug-19 19:33N 37°48' W 122°20'0 0.0
2016-Aug-19 18:33N 37°48' W 122°20'0 0.0
2016-Aug-19 17:33N 37°48' W 122°20'0 0.0
2016-Aug-19 16:33N 37°48' W 122°20'0 0.0
2016-Aug-19 15:33N 37°48' W 122°20'0 0.0
2016-Aug-19 14:33N 37°48' W 122°20'0 0.0
2016-Aug-19 13:33N 37°48' W 122°20'0 0.0
2016-Aug-19 12:33N 37°48' W 122°20'0 0.0
2016-Aug-19 11:33N 37°48' W 122°20'0 0.0
2016-Aug-19 10:33N 37°48' W 122°20'0 0.0
2016-Aug-19 09:33N 37°48' W 122°20'0 0.0
2016-Aug-19 08:33N 37°48' W 122°20'1 0.7
2016-Aug-19 07:33N 37°49' W 122°20'9 9.3
2016-Aug-19 06:33N 37°48' W 122°31'9 8.9
2016-Aug-19 05:33N 37°42' W 122°40'7 6.7
2016-Aug-19 04:33N 37°35' W 122°40'9 9.0
2016-Aug-19 03:33N 37°26' W 122°39'9 9.0
2016-Aug-19 02:33N 37°17' W 122°39'1211.6
2016-Aug-19 01:33N 37°06' W 122°36'1313.1
2016-Aug-19 00:33N 36°54' W 122°30'2 2.3
2016-Aug-18 23:33N 36°52' W 122°29'1 0.9
2016-Aug-18 22:33N 36°52' W 122°30'1 0.9
2016-Aug-18 21:33N 36°51' W 122°31'1 1.0
2016-Aug-18 20:33N 36°51' W 122°32'1 0.9
2016-Aug-18 19:33N 36°51' W 122°33'1 0.8
2016-Aug-18 18:33N 36°50' W 122°34'1 0.9
2016-Aug-18 17:33N 36°50' W 122°35'1 0.9
2016-Aug-18 16:33N 36°50' W 122°36'1 0.7
2016-Aug-18 15:33N 36°50' W 122°37'1 0.7
2016-Aug-18 14:33N 36°50' W 122°38'1 0.9
2016-Aug-18 13:32N 36°50' W 122°39'1 0.9
2016-Aug-18 12:33N 36°51' W 122°40'1 1.0
2016-Aug-18 11:33N 36°51' W 122°41'1 1.1
2016-Aug-18 10:29N 36°51' W 122°42'1 1.1
2016-Aug-18 09:33N 36°52' W 122°43'1 1.1
2016-Aug-18 08:33N 36°52' W 122°45'1 1.1
2016-Aug-18 07:34N 36°53' W 122°46'1 1.1
2016-Aug-18 06:33N 36°53' W 122°47'1 1.1
2016-Aug-18 05:33N 36°53' W 122°49'1 1.1
2016-Aug-18 04:33N 36°54' W 122°50'1 1.3
2016-Aug-18 03:33N 36°55' W 122°51'8 7.9
2016-Aug-18 02:33N 36°55' W 122°41'1110.7
2016-Aug-18 01:33N 36°49' W 122°31'1313.0
2016-Aug-18 00:33N 36°37' W 122°24'1313.0
2016-Aug-17 23:33N 36°25' W 122°17'1313.0
2016-Aug-17 22:33N 36°14' W 122°10'1312.8
2016-Aug-17 21:33N 36°03' W 122°02'1312.8
2016-Aug-17 20:33N 35°52' W 121°54'1313.0
2016-Aug-17 19:33N 35°41' W 121°45'1313.0
2016-Aug-17 18:33N 35°29' W 121°37'1313.2
2016-Aug-17 17:33N 35°18' W 121°29'1313.2
2016-Aug-17 16:33N 35°07' W 121°20'1313.3
2016-Aug-17 15:33N 34°55' W 121°12'1313.0
2016-Aug-17 14:33N 34°44' W 121°04'2512.6
2016-Aug-17 12:33N 34°25' W 120°45'1312.6
2016-Aug-17 11:33N 34°21' W 120°30'1313.5
2016-Aug-17 10:34N 34°18' W 120°14'1413.7
2016-Aug-17 09:34N 34°14' W 119°58'1212.4
2016-Aug-17 08:33N 34°11' W 119°44'1312.6
2016-Aug-17 07:33N 34°07' W 119°29'1312.9
2016-Aug-17 06:34N 34°04' W 119°14'1312.9
2016-Aug-17 05:34N 33°58' W 119°00'1111.1
2016-Aug-17 04:34N 33°52' W 118°49'1110.7
2016-Aug-17 03:33N 33°46' W 118°38'1110.7
2016-Aug-17 02:33N 33°41' W 118°27'10 9.6
2016-Aug-17 01:33N 33°40' W 118°15'4 3.6
2016-Aug-17 00:31N 33°44' W 118°15'0 0.0
2016-Aug-16 23:31N 33°44' W 118°15'0 0.0
2016-Aug-16 22:31N 33°44' W 118°15'0 0.0
2016-Aug-16 21:31N 33°44' W 118°15'0 0.0
2016-Aug-16 20:33N 33°44' W 118°15'0 0.0
2016-Aug-16 19:33N 33°44' W 118°15'0 0.0
2016-Aug-16 18:33N 33°44' W 118°15'0 0.0
2016-Aug-16 17:30N 33°44' W 118°15'0 0.0
2016-Aug-16 16:33N 33°44' W 118°15'0 0.0
2016-Aug-16 15:33N 33°44' W 118°15'0 0.0
2016-Aug-16 14:33N 33°44' W 118°15'0 0.0
2016-Aug-16 13:33N 33°44' W 118°15'0 0.0
2016-Aug-16 12:33N 33°44' W 118°15'0 0.0
2016-Aug-16 11:33N 33°44' W 118°15'0 0.0
2016-Aug-16 10:33N 33°44' W 118°15'0 0.0
2016-Aug-16 09:33N 33°44' W 118°15'0 0.0
2016-Aug-16 08:33N 33°44' W 118°15'0 0.0
2016-Aug-16 07:33N 33°44' W 118°15'0 0.0
2016-Aug-16 04:33N 33°44' W 118°15'0 0.0
2016-Aug-16 03:33N 33°44' W 118°15'0 0.0
2016-Aug-16 02:33N 33°44' W 118°15'0 0.0
2016-Aug-16 01:33N 33°44' W 118°15'0 0.0
2016-Aug-16 00:33N 33°44' W 118°15'0 0.0
2016-Aug-15 23:33N 33°44' W 118°15'0 0.0
2016-Aug-15 22:33N 33°44' W 118°15'0 0.0
2016-Aug-15 21:33N 33°44' W 118°15'0 0.0
2016-Aug-15 20:30N 33°44' W 118°15'0 0.0
2016-Aug-15 19:33N 33°44' W 118°15'0 0.0
2016-Aug-15 18:33N 33°44' W 118°15'0 0.0
2016-Aug-15 17:33N 33°44' W 118°15'0 0.0
2016-Aug-15 16:33N 33°44' W 118°15'0 0.0
2016-Aug-15 15:30N 33°44' W 118°15'0 0.0
2016-Aug-15 14:33N 33°44' W 118°15'0 0.0
2016-Aug-15 13:33N 33°44' W 118°15'0 0.0
2016-Aug-15 12:33N 33°44' W 118°15'0 0.0
2016-Aug-15 11:33N 33°44' W 118°15'0 0.0
2016-Aug-15 10:30N 33°44' W 118°15'0 0.0
2016-Aug-15 09:33N 33°44' W 118°15'0 0.0
2016-Aug-15 08:33N 33°44' W 118°15'0 0.0
2016-Aug-15 07:33N 33°44' W 118°15'0 0.0
2016-Aug-15 06:33N 33°44' W 118°15'0 0.0
2016-Aug-15 04:33N 33°44' W 118°15'0 0.0
2016-Aug-15 03:33N 33°44' W 118°15'0 0.0
2016-Aug-15 02:33N 33°44' W 118°15'0 0.0
2016-Aug-15 01:33N 33°44' W 118°15'0 0.0
2016-Aug-15 00:33N 33°44' W 118°15'0 0.0
2016-Aug-14 23:33N 33°44' W 118°15'0 0.1
2016-Aug-14 22:33N 33°44' W 118°16'6 5.8
2016-Aug-14 21:33N 33°38' W 118°16'8 8.4
2016-Aug-14 20:33N 33°36' W 118°26'9 9.1
2016-Aug-14 19:33N 33°36' W 118°37'1010.2
2016-Aug-14 18:33N 33°37' W 118°49'1111.2
2016-Aug-14 17:33N 33°38' W 119°02'1010.3
2016-Aug-14 16:33N 33°38' W 119°15'1312.9
2016-Aug-14 15:33N 33°38' W 119°30'1313.1
2016-Aug-14 14:33N 33°38' W 119°46'1313.2
2016-Aug-14 13:33N 33°38' W 120°02'1313.2
2016-Aug-14 12:33N 33°38' W 120°18'1313.3
2016-Aug-14 11:33N 33°38' W 120°34'1413.6
2016-Aug-14 10:33N 33°38' W 120°50'1413.9
2016-Aug-14 09:33N 33°38' W 121°07'1413.9
2016-Aug-14 08:33N 33°38' W 121°23'1413.7
2016-Aug-14 07:33N 33°38' W 121°40'1313.5
2016-Aug-14 06:33N 33°38' W 121°56'2713.3
2016-Aug-14 04:33N 33°39' W 122°28'1414.0
2016-Aug-14 03:33N 33°39' W 122°45'1414.1
2016-Aug-14 02:33N 33°39' W 123°02'1413.9
2016-Aug-14 01:33N 33°39' W 123°18'1413.9
2016-Aug-14 00:34N 33°39' W 123°35'1313.4
2016-Aug-13 23:33N 33°39' W 123°51'1313.0
2016-Aug-13 22:33N 33°39' W 124°07'1413.1
2016-Aug-13 21:28N 33°39' W 124°24'1415.5
2016-Aug-13 20:33N 33°44' W 124°40'1817.2
2016-Aug-13 19:31N 33°53' W 124°58'1717.2
2016-Aug-13 18:32N 34°02' W 125°15'9017.8
2016-Aug-13 13:30N 34°48' W 126°49'3618.5
2016-Aug-13 11:33N 35°07' W 127°26'1818.5
2016-Aug-13 10:33N 35°17' W 127°46'1918.4
2016-Aug-13 09:33N 35°26' W 128°05'1818.3
2016-Aug-13 08:33N 35°35' W 128°25'1918.3
2016-Aug-13 07:31N 35°44' W 128°45'2118.1
2016-Aug-13 06:20N 35°55' W 129°07'  

Dump ship's entire track history